Time;durP1;ratioP1;P1;durP2;ratioP2;P2;SDS_P1;SDS_P2;PMS_P1;PMS_P2;Temp;Humidity;BMP_temperature;BMP_pressure;BME280_temperature;BME280_humidity;BME280_pressure;Samples;Min_cycle;Max_cycle;Signal;HPM_P1;HPM_P2
2021/06/08 00:01:53;;;;;;;8.40;7.90;;;19.80;99.90;;;;;;4974810;28;20844;-89
2021/06/08 00:04:18;;;;;;;9.20;8.60;;;19.80;99.90;;;;;;4989263;28;20232;-91
2021/06/08 00:06:44;;;;;;;9.77;9.07;;;19.60;99.90;;;;;;4973468;28;20437;-90
2021/06/08 00:09:09;;;;;;;9.43;8.53;;;19.70;99.90;;;;;;4972535;28;20206;-91
2021/06/08 00:11:35;;;;;;;9.00;8.40;;;19.70;99.90;;;;;;4987918;28;20221;-92
2021/06/08 00:14:01;;;;;;;9.67;8.93;;;19.70;99.90;;;;;;4986822;28;20229;-90
2021/06/08 00:16:26;;;;;;;9.90;9.10;;;19.80;99.90;;;;;;4975615;28;20356;-91
2021/06/08 00:18:52;;;;;;;10.00;9.20;;;19.70;99.90;;;;;;4991584;28;20250;-92
2021/06/08 00:21:17;;;;;;;10.17;9.47;;;19.70;99.90;;;;;;5007994;28;20206;-92
2021/06/08 00:23:43;;;;;;;9.10;8.50;;;19.70;99.90;;;;;;4979287;28;20375;-90
2021/06/08 00:26:09;;;;;;;9.67;8.97;;;19.80;99.90;;;;;;4988348;28;20213;-90
2021/06/08 00:28:34;;;;;;;9.40;8.80;;;19.60;99.90;;;;;;4971696;28;20262;-91
2021/06/08 00:31:00;;;;;;;9.10;8.50;;;19.60;99.90;;;;;;4971105;28;20218;-91
2021/06/08 00:33:26;;;;;;;9.93;9.23;;;19.60;99.90;;;;;;4990389;28;20244;-89
2021/06/08 00:35:51;;;;;;;9.77;9.07;;;19.60;99.90;;;;;;4970796;28;20360;-93
2021/06/08 00:38:17;;;;;;;9.40;8.70;;;19.60;99.90;;;;;;4990496;28;20190;-90
2021/06/08 00:40:44;;;;;;;9.53;8.83;;;19.70;99.90;;;;;;4971876;28;20221;-90
2021/06/08 00:43:10;;;;;;;9.20;8.60;;;19.70;99.90;;;;;;4972069;28;20782;-91
2021/06/08 01:43:16;;;;;;;12.97;12.00;;;19.10;99.90;;;;;;4995750;28;21126;-91
2021/06/08 01:45:47;;;;;;;11.67;10.80;;;19.20;99.90;;;;;;4989742;28;20992;-91
2021/06/08 01:48:12;;;;;;;13.03;12.13;;;19.20;99.90;;;;;;4971756;28;20636;-90
2021/06/08 01:53:42;;;;;;;11.53;10.73;;;19.10;99.90;;;;;;4992154;28;20221;-66
2021/06/08 01:56:11;;;;;;;12.13;11.23;;;19.10;99.90;;;;;;4989074;28;20663;-67
2021/06/08 01:58:57;;;;;;;13.97;12.87;;;19.10;99.90;;;;;;4991856;28;20624;-66
2021/06/08 02:01:30;;;;;;;12.43;11.43;;;19.10;99.90;;;;;;4971211;28;21213;-67
2021/06/08 02:04:02;;;;;;;12.50;11.60;;;19.10;99.90;;;;;;4971600;28;21060;-66
2021/06/08 02:06:57;;;;;;;12.20;11.30;;;19.10;99.90;;;;;;4969877;28;20625;-66
2021/06/08 02:09:38;;;;;;;11.17;10.37;;;19.10;99.90;;;;;;4966773;28;21306;-66
2021/06/08 02:12:22;;;;;;;11.47;10.47;;;19.10;99.90;;;;;;4973751;28;20663;-69
2021/06/08 02:14:58;;;;;;;11.80;10.80;;;19.20;99.90;;;;;;4967420;28;21171;-66
2021/06/08 02:17:30;;;;;;;12.90;11.80;;;19.10;99.90;;;;;;4972380;28;20616;-66
2021/06/08 02:20:01;;;;;;;11.60;10.70;;;19.10;99.90;;;;;;4971696;28;20658;-66
2021/06/08 02:22:27;;;;;;;11.37;10.60;;;19.00;99.90;;;;;;4975230;28;20609;-67
2021/06/08 02:24:53;;;;;;;12.07;11.17;;;19.00;99.90;;;;;;4970670;28;21027;-67
2021/06/08 02:27:24;;;;;;;11.67;10.77;;;19.00;99.90;;;;;;4976208;28;20759;-67
2021/06/08 02:29:53;;;;;;;10.77;9.97;;;19.00;99.90;;;;;;4971332;28;20993;-66
2021/06/08 02:32:20;;;;;;;11.17;10.37;;;19.00;99.90;;;;;;4968185;28;20650;-66
2021/06/08 02:34:46;;;;;;;11.50;10.60;;;19.00;99.90;;;;;;4973848;28;20726;-67
2021/06/08 02:37:13;;;;;;;11.90;10.90;;;19.00;99.90;;;;;;4975978;28;21311;-69
2021/06/08 02:39:41;;;;;;;11.30;10.40;;;19.00;99.90;;;;;;4972530;28;20637;-66
2021/06/08 02:42:09;;;;;;;11.20;10.40;;;19.00;99.90;;;;;;4961980;28;20605;-66
2021/06/08 02:44:36;;;;;;;12.50;11.50;;;19.00;99.90;;;;;;4973262;28;20669;-66
2021/06/08 02:47:02;;;;;;;12.50;11.50;;;19.00;99.90;;;;;;4954840;28;20648;-67
2021/06/08 02:49:28;;;;;;;12.53;11.53;;;19.00;99.90;;;;;;4976436;28;20664;-68
2021/06/08 02:51:55;;;;;;;13.33;12.33;;;19.00;99.90;;;;;;4971488;28;20628;-66
2021/06/08 02:54:22;;;;;;;12.00;11.10;;;18.90;99.90;;;;;;4976064;28;20633;-67
2021/06/08 02:56:49;;;;;;;11.33;10.53;;;18.90;99.90;;;;;;4977848;28;20862;-66
2021/06/08 02:59:15;;;;;;;12.07;11.07;;;18.90;99.90;;;;;;4974879;28;20699;-66
2021/06/08 03:01:47;;;;;;;12.30;11.40;;;18.90;99.90;;;;;;4977480;28;20648;-66
2021/06/08 03:04:16;;;;;;;11.20;10.30;;;18.80;99.90;;;;;;4977697;28;20687;-66
2021/06/08 03:06:53;;;;;;;11.07;10.20;;;18.80;99.90;;;;;;4975602;28;20624;-66
2021/06/08 03:09:31;;;;;;;11.07;10.17;;;18.80;99.90;;;;;;4966241;28;20637;-66
2021/06/08 03:12:00;;;;;;;10.73;9.93;;;18.80;99.90;;;;;;4974263;28;20832;-66
2021/06/08 03:14:26;;;;;;;10.83;9.93;;;18.80;99.90;;;;;;4975249;28;20646;-67
2021/06/08 03:16:56;;;;;;;11.67;10.70;;;18.80;99.90;;;;;;4976477;28;22197;-66
2021/06/08 03:19:24;;;;;;;10.50;9.60;;;18.80;99.90;;;;;;4982773;28;20672;-67
2021/06/08 03:21:52;;;;;;;10.43;9.53;;;18.70;99.90;;;;;;4981958;28;20647;-66
2021/06/08 03:24:20;;;;;;;10.30;9.60;;;18.70;99.90;;;;;;4975549;28;20818;-66
2021/06/08 03:26:47;;;;;;;10.87;9.90;;;18.70;99.90;;;;;;4972349;28;20616;-66
2021/06/08 03:29:15;;;;;;;10.47;9.67;;;18.70;99.90;;;;;;4976640;28;21211;-66
2021/06/08 03:31:44;;;;;;;10.27;9.47;;;18.70;99.90;;;;;;4976195;28;20767;-66
2021/06/08 03:34:15;;;;;;;9.83;9.03;;;18.70;99.90;;;;;;4978405;28;20728;-66
2021/06/08 03:36:47;;;;;;;10.00;9.20;;;18.70;99.90;;;;;;4972328;28;20640;-67
2021/06/08 03:39:15;;;;;;;9.77;9.07;;;18.70;99.90;;;;;;4972559;28;20661;-67
2021/06/08 03:41:42;;;;;;;9.83;9.10;;;18.70;99.90;;;;;;4974915;28;23790;-67
2021/06/08 03:44:13;;;;;;;10.43;9.63;;;18.70;99.90;;;;;;4970348;28;20712;-67
2021/06/08 03:46:39;;;;;;;10.10;9.30;;;18.70;99.90;;;;;;4966511;28;21861;-67
2021/06/08 03:49:05;;;;;;;11.30;10.20;;;18.70;99.90;;;;;;4975638;28;20633;-67
2021/06/08 03:51:31;;;;;;;12.40;11.30;;;18.60;99.90;;;;;;4971257;28;20663;-67
2021/06/08 03:53:58;;;;;;;11.00;10.20;;;18.60;99.90;;;;;;4980358;28;20652;-68
2021/06/08 03:56:25;;;;;;;11.07;10.27;;;18.60;99.90;;;;;;4973640;28;20719;-67
2021/06/08 03:58:53;;;;;;;10.73;9.93;;;18.60;99.90;;;;;;4975524;28;20617;-66
2021/06/08 04:01:20;;;;;;;10.80;10.00;;;18.60;99.90;;;;;;4954879;28;20633;-67
2021/06/08 04:03:47;;;;;;;11.47;10.47;;;18.60;99.90;;;;;;4978256;28;20676;-67
2021/06/08 04:06:15;;;;;;;11.40;10.50;;;18.60;99.90;;;;;;4972878;28;20725;-67
2021/06/08 04:08:41;;;;;;;11.97;10.97;;;18.60;99.90;;;;;;4976600;28;20936;-67
2021/06/08 04:11:10;;;;;;;10.93;10.03;;;18.60;99.90;;;;;;4978624;28;20767;-67
2021/06/08 04:13:40;;;;;;;11.40;10.50;;;18.60;99.90;;;;;;4981813;28;20248;-67
2021/06/08 04:16:07;;;;;;;9.43;8.73;;;18.60;99.90;;;;;;4977368;28;20635;-67
2021/06/08 04:18:36;;;;;;;11.23;10.33;;;18.60;99.90;;;;;;4958846;28;20703;-67
2021/06/08 04:21:05;;;;;;;11.90;10.90;;;18.60;99.90;;;;;;4974142;28;20764;-68
2021/06/08 04:23:32;;;;;;;11.00;10.10;;;18.60;99.90;;;;;;4976188;28;20723;-67
2021/06/08 04:25:59;;;;;;;10.67;9.87;;;18.60;99.90;;;;;;4974436;28;20680;-66
2021/06/08 04:28:26;;;;;;;10.50;9.70;;;18.70;99.90;;;;;;4971453;28;20679;-66
2021/06/08 04:30:55;;;;;;;11.23;10.23;;;18.70;99.90;;;;;;4983086;28;20644;-66
2021/06/08 04:33:30;;;;;;;10.97;10.07;;;18.70;99.90;;;;;;4974196;28;20644;-66
2021/06/08 04:35:56;;;;;;;10.33;9.40;;;18.70;99.90;;;;;;4974474;28;20624;-67
2021/06/08 04:38:23;;;;;;;11.40;10.50;;;18.70;99.90;;;;;;4998599;28;20639;-66
2021/06/08 04:40:51;;;;;;;10.73;9.80;;;18.60;99.90;;;;;;4976118;28;20672;-66
2021/06/08 04:43:24;;;;;;;11.30;10.40;;;18.70;99.90;;;;;;4976716;28;20628;-67
2021/06/08 04:45:50;;;;;;;10.20;9.30;;;18.70;99.90;;;;;;4975337;28;20620;-65
2021/06/08 04:48:16;;;;;;;10.33;9.43;;;18.70;99.90;;;;;;4979831;28;20692;-65
2021/06/08 04:50:42;;;;;;;11.10;10.20;;;18.70;99.90;;;;;;4976887;28;20700;-66
2021/06/08 04:53:07;;;;;;;10.43;9.63;;;18.80;99.90;;;;;;4967873;28;20358;-65
2021/06/08 04:55:33;;;;;;;10.50;9.70;;;18.70;99.90;;;;;;4975336;28;21647;-65
2021/06/08 04:57:59;;;;;;;10.83;9.93;;;18.70;99.90;;;;;;4974442;28;20202;-66
2021/06/08 05:00:34;;;;;;;11.10;10.10;;;18.70;99.90;;;;;;4970732;28;20235;-65
2021/06/08 05:03:18;;;;;;;10.57;9.60;;;18.70;99.90;;;;;;4938839;28;20236;-65
2021/06/08 05:05:52;;;;;;;10.20;9.30;;;18.80;99.90;;;;;;4971279;28;20699;-66
2021/06/08 05:08:26;;;;;;;10.60;9.60;;;18.80;99.90;;;;;;4974382;28;20649;-66
2021/06/08 05:11:00;;;;;;;9.70;8.90;;;18.70;99.90;;;;;;4961810;28;20673;-65
2021/06/08 05:13:29;;;;;;;9.60;8.80;;;18.70;99.90;;;;;;4966584;28;20768;-65
2021/06/08 05:15:55;;;;;;;10.10;9.40;;;18.80;99.90;;;;;;4963082;28;20691;-65
2021/06/08 05:18:23;;;;;;;9.97;9.07;;;18.70;99.90;;;;;;4961902;28;20669;-66
2021/06/08 05:20:50;;;;;;;10.00;9.10;;;18.80;99.90;;;;;;4962570;28;20667;-66
2021/06/08 05:23:17;;;;;;;9.80;9.00;;;18.80;99.90;;;;;;4975857;28;20646;-65
2021/06/08 05:25:44;;;;;;;9.33;8.57;;;18.80;99.90;;;;;;4978865;28;21058;-64
2021/06/08 05:28:13;;;;;;;9.07;8.27;;;18.80;99.90;;;;;;4982730;28;20652;-65
2021/06/08 05:30:41;;;;;;;8.63;8.00;;;18.80;99.90;;;;;;4971113;28;21319;-65
2021/06/08 05:33:10;;;;;;;9.47;8.60;;;18.80;99.90;;;;;;4968725;28;20644;-65
2021/06/08 05:35:39;;;;;;;8.53;7.87;;;18.80;99.90;;;;;;4968302;28;20617;-65
2021/06/08 05:38:06;;;;;;;9.90;8.53;;;18.90;99.90;;;;;;4968957;28;20755;-65
2021/06/08 05:40:32;;;;;;;8.87;7.97;;;18.80;99.90;;;;;;4978796;28;23412;-65
2021/06/08 05:42:58;;;;;;;9.30;8.50;;;18.90;99.90;;;;;;4973440;28;20605;-65
2021/06/08 05:45:24;;;;;;;8.77;8.10;;;18.90;99.90;;;;;;4974295;28;21803;-66
2021/06/08 05:47:50;;;;;;;9.03;8.30;;;18.90;99.90;;;;;;4984904;28;20258;-66
2021/06/08 05:50:16;;;;;;;8.57;7.93;;;18.90;99.90;;;;;;4985635;28;20297;-66
2021/06/08 05:52:44;;;;;;;8.93;8.13;;;19.00;99.90;;;;;;4951121;28;20782;-65
2021/06/08 05:55:11;;;;;;;8.83;8.13;;;19.00;99.90;;;;;;4981651;28;20613;-66
2021/06/08 05:57:39;;;;;;;8.67;8.00;;;19.00;99.90;;;;;;4979198;28;20617;-65
2021/06/08 06:00:06;;;;;;;8.73;8.03;;;19.00;99.90;;;;;;4979920;28;20710;-65
2021/06/08 06:02:35;;;;;;;8.40;7.80;;;19.00;99.90;;;;;;4971459;28;21184;-66
2021/06/08 06:05:02;;;;;;;8.50;7.80;;;19.10;99.90;;;;;;4965480;28;21315;-65
2021/06/08 06:07:27;;;;;;;9.17;8.37;;;19.10;99.90;;;;;;4954442;28;20630;-65
2021/06/08 06:09:53;;;;;;;8.67;7.93;;;19.20;99.90;;;;;;4970642;28;20655;-66
2021/06/08 06:12:19;;;;;;;8.00;7.37;;;19.20;99.90;;;;;;4968733;28;20213;-65
2021/06/08 06:14:49;;;;;;;8.47;7.80;;;19.20;99.90;;;;;;4976841;28;20238;-65
2021/06/08 06:17:16;;;;;;;7.93;7.33;;;19.20;99.90;;;;;;4978924;28;20632;-66
2021/06/08 06:19:42;;;;;;;8.60;8.00;;;19.20;99.90;;;;;;4979413;28;21888;-66
2021/06/08 06:22:08;;;;;;;9.00;8.20;;;19.20;99.90;;;;;;4973564;28;20764;-65
2021/06/08 06:24:36;;;;;;;8.10;7.50;;;19.20;99.90;;;;;;4977680;28;20637;-66
2021/06/08 06:27:02;;;;;;;8.13;7.53;;;19.30;99.90;;;;;;4980821;28;20614;-66
2021/06/08 06:29:28;;;;;;;8.30;7.60;;;19.30;99.90;;;;;;4957658;28;20633;-66
2021/06/08 06:31:56;;;;;;;8.97;8.17;;;19.30;99.90;;;;;;4973908;28;21189;-66
2021/06/08 06:34:24;;;;;;;8.60;8.00;;;19.40;99.90;;;;;;4979510;28;20302;-66
2021/06/08 06:36:56;;;;;;;9.17;8.37;;;19.40;99.90;;;;;;4976057;28;20771;-66
2021/06/08 06:39:26;;;;;;;9.10;8.40;;;19.40;99.90;;;;;;4974718;28;20700;-66
2021/06/08 06:41:56;;;;;;;9.20;8.40;;;19.50;99.90;;;;;;4962432;28;20609;-65
2021/06/08 06:44:23;;;;;;;8.73;7.93;;;19.50;99.90;;;;;;4975357;28;20638;-65
2021/06/08 06:46:50;;;;;;;8.77;7.97;;;19.60;99.90;;;;;;4974486;28;20675;-66
2021/06/08 06:49:16;;;;;;;8.30;7.60;;;19.60;99.90;;;;;;4967618;28;20687;-66
2021/06/08 06:51:45;;;;;;;8.00;7.30;;;19.60;99.90;;;;;;4983174;28;20695;-66
2021/06/08 06:54:11;;;;;;;9.40;8.40;;;19.60;99.90;;;;;;4974848;28;20304;-66
2021/06/08 06:56:38;;;;;;;8.10;7.50;;;19.60;99.90;;;;;;4978836;28;21454;-65
2021/06/08 06:59:06;;;;;;;8.30;7.50;;;19.70;99.90;;;;;;4974342;28;20213;-65
2021/06/08 07:01:32;;;;;;;8.67;7.97;;;19.80;99.90;;;;;;4973806;28;20617;-65
2021/06/08 07:04:00;;;;;;;9.13;8.43;;;19.80;99.90;;;;;;4979368;28;20744;-65
2021/06/08 07:06:28;;;;;;;8.73;7.93;;;19.80;99.90;;;;;;4980656;28;20724;-65
2021/06/08 07:08:56;;;;;;;8.20;7.50;;;19.90;99.90;;;;;;4975875;28;21311;-66
2021/06/08 07:11:24;;;;;;;8.70;8.00;;;20.00;99.90;;;;;;4954150;28;20666;-65
2021/06/08 07:13:53;;;;;;;9.20;8.40;;;20.00;99.90;;;;;;4975180;28;20633;-66
2021/06/08 07:16:23;;;;;;;8.70;8.00;;;20.00;99.90;;;;;;4974302;28;20616;-66
2021/06/08 07:18:49;;;;;;;8.43;7.63;;;20.10;99.90;;;;;;4959030;28;20629;-65
2021/06/08 07:21:16;;;;;;;8.50;7.60;;;20.10;99.90;;;;;;4974204;28;20789;-65
2021/06/08 07:23:43;;;;;;;8.50;7.90;;;20.20;99.90;;;;;;4961497;28;20677;-70
2021/06/08 07:26:11;;;;;;;9.37;8.67;;;20.20;99.90;;;;;;4979136;28;20737;-67
2021/06/08 07:28:37;;;;;;;8.73;7.93;;;20.30;99.90;;;;;;4981826;28;20628;-65
2021/06/08 07:31:06;;;;;;;8.20;7.60;;;20.30;99.90;;;;;;4982409;28;20644;-67
2021/06/08 07:34:01;;;;;;;7.70;7.10;;;20.30;99.90;;;;;;4994432;28;20733;-66
2021/06/08 07:36:38;;;;;;;7.70;7.00;;;20.40;99.90;;;;;;4990566;28;20736;-66
2021/06/08 07:39:27;;;;;;;8.90;8.27;;;20.40;99.90;;;;;;4968403;28;21089;-66
2021/06/08 07:42:12;;;;;;;8.00;7.40;;;20.50;99.90;;;;;;4967895;28;20653;-66
2021/06/08 07:44:52;;;;;;;8.03;7.30;;;20.60;99.90;;;;;;4983351;28;20653;-66
2021/06/08 07:47:21;;;;;;;8.27;7.67;;;20.60;99.90;;;;;;4981086;28;21693;-66
2021/06/08 07:49:50;;;;;;;7.60;7.10;;;20.70;99.90;;;;;;4986590;28;20652;-66
2021/06/08 07:52:18;;;;;;;7.33;6.83;;;20.80;99.90;;;;;;4988072;28;20617;-66
2021/06/08 07:54:44;;;;;;;7.60;6.87;;;20.80;99.90;;;;;;4980545;28;20641;-66
2021/06/08 07:57:13;;;;;;;8.33;7.60;;;20.90;99.90;;;;;;4981893;28;20675;-65
2021/06/08 07:59:41;;;;;;;8.50;7.80;;;21.00;99.90;;;;;;4983497;28;20221;-66
2021/06/08 08:02:09;;;;;;;8.50;7.80;;;21.10;99.90;;;;;;4982404;28;20613;-66
2021/06/08 08:04:38;;;;;;;8.83;8.03;;;21.20;99.90;;;;;;4978778;28;20740;-66
2021/06/08 08:07:04;;;;;;;7.63;7.10;;;21.20;99.90;;;;;;4980268;28;20640;-66
2021/06/08 08:09:31;;;;;;;7.47;6.93;;;21.20;99.90;;;;;;4979862;28;20641;-66
2021/06/08 08:11:58;;;;;;;7.60;7.00;;;21.30;99.90;;;;;;4962254;28;20264;-65
2021/06/08 08:14:25;;;;;;;8.30;7.70;;;21.30;99.90;;;;;;4978507;28;20696;-66
2021/06/08 08:16:55;;;;;;;7.87;7.20;;;21.40;99.90;;;;;;4976787;28;20648;-66
2021/06/08 08:19:24;;;;;;;7.53;6.97;;;21.40;99.90;;;;;;4974655;28;20656;-66
2021/06/08 08:21:49;;;;;;;8.13;7.43;;;21.50;99.90;;;;;;4978596;28;20759;-66
2021/06/08 08:24:15;;;;;;;8.23;7.70;;;21.50;99.90;;;;;;4980404;28;20756;-65
2021/06/08 08:26:41;;;;;;;8.60;8.00;;;21.60;99.90;;;;;;4978004;28;20260;-65
2021/06/08 08:29:07;;;;;;;7.90;7.30;;;21.60;99.90;;;;;;4974796;28;20746;-66
2021/06/08 08:31:33;;;;;;;8.13;7.43;;;21.60;99.90;;;;;;4982008;28;20610;-65
2021/06/08 08:34:02;;;;;;;7.93;7.17;;;21.60;99.90;;;;;;4976960;28;20251;-65
2021/06/08 08:36:30;;;;;;;7.60;7.00;;;21.70;99.90;;;;;;4954312;28;20201;-65
2021/06/08 08:38:56;;;;;;;8.07;7.50;;;21.70;99.90;;;;;;4976575;28;20628;-65
2021/06/08 08:41:22;;;;;;;7.50;7.00;;;21.70;99.90;;;;;;4979049;28;20629;-65
2021/06/08 08:43:51;;;;;;;8.30;7.67;;;21.70;99.90;;;;;;4970970;28;22607;-65
2021/06/08 08:46:20;;;;;;;7.67;7.07;;;21.80;99.90;;;;;;4976777;28;20598;-65
2021/06/08 08:48:47;;;;;;;7.33;6.73;;;21.80;99.90;;;;;;4978612;28;20673;-65
2021/06/08 08:51:16;;;;;;;6.40;5.90;;;21.90;99.90;;;;;;4975980;28;21200;-64
2021/06/08 08:53:44;;;;;;;6.43;6.00;;;22.00;99.90;;;;;;4978183;28;20656;-66
2021/06/08 08:56:10;;;;;;;6.87;6.37;;;22.00;99.90;;;;;;4972916;28;20621;-66
2021/06/08 08:58:38;;;;;;;6.37;5.87;;;22.10;99.90;;;;;;4976252;28;20617;-66
2021/06/08 09:01:04;;;;;;;8.10;7.50;;;22.20;99.90;;;;;;4970738;28;20217;-66
2021/06/08 09:03:30;;;;;;;7.80;7.10;;;22.20;99.90;;;;;;4972657;28;20636;-65
2021/06/08 09:05:59;;;;;;;7.83;7.23;;;22.30;99.90;;;;;;4978122;28;20606;-66
2021/06/08 09:08:24;;;;;;;7.50;6.90;;;22.40;99.90;;;;;;4974966;28;20664;-66
2021/06/08 09:10:52;;;;;;;7.40;6.80;;;22.50;99.90;;;;;;4968786;28;20643;-66
2021/06/08 09:13:18;;;;;;;8.00;7.30;;;22.50;99.90;;;;;;4971492;28;20237;-66
2021/06/08 09:15:44;;;;;;;7.33;6.73;;;22.60;99.90;;;;;;4974260;28;20968;-66
2021/06/08 09:18:10;;;;;;;7.00;6.50;;;22.70;99.90;;;;;;4965038;28;20182;-66
2021/06/08 09:20:36;;;;;;;7.17;6.57;;;22.70;99.90;;;;;;4959198;28;20649;-66
2021/06/08 09:23:07;;;;;;;6.13;5.67;;;22.80;99.90;;;;;;4975138;28;20982;-65
2021/06/08 09:25:46;;;;;;;6.47;6.07;;;22.80;99.90;;;;;;4952963;28;20648;-66
2021/06/08 09:28:19;;;;;;;6.27;5.67;;;22.90;99.90;;;;;;4976846;28;20969;-66
2021/06/08 09:30:57;;;;;;;7.50;6.80;;;23.00;99.90;;;;;;4975118;28;20649;-66
2021/06/08 09:33:30;;;;;;;7.40;6.80;;;23.10;99.90;;;;;;4975497;28;20629;-66
2021/06/08 09:36:06;;;;;;;6.97;6.07;;;23.10;99.90;;;;;;4977214;28;20699;-66
2021/06/08 09:38:40;;;;;;;7.13;6.53;;;23.10;99.90;;;;;;4973710;28;21187;-66
2021/06/08 09:41:16;;;;;;;6.07;5.57;;;23.20;99.90;;;;;;4972965;28;20763;-66
2021/06/08 09:43:53;;;;;;;5.50;5.10;;;23.20;99.90;;;;;;4976154;28;20719;-66
2021/06/08 09:46:21;;;;;;;5.83;5.47;;;23.30;99.90;;;;;;4973790;28;20624;-66
2021/06/08 09:48:55;;;;;;;5.53;5.13;;;23.40;99.90;;;;;;4979048;28;20629;-66
2021/06/08 09:51:23;;;;;;;5.43;5.03;;;23.40;99.90;;;;;;4980817;28;20639;-66
2021/06/08 09:53:48;;;;;;;5.50;5.10;;;23.40;99.90;;;;;;4958507;28;20664;-66
2021/06/08 09:56:15;;;;;;;7.10;5.50;;;23.50;99.90;;;;;;4978792;28;21003;-66
2021/06/08 09:58:46;;;;;;;5.60;5.20;;;23.60;99.90;;;;;;4975253;28;21451;-66
2021/06/08 10:01:12;;;;;;;5.90;5.50;;;23.80;99.90;;;;;;4977036;28;20652;-66
2021/06/08 10:03:52;;;;;;;5.93;5.30;;;23.80;99.90;;;;;;4982274;28;20652;-66
2021/06/08 10:06:38;;;;;;;5.63;5.33;;;23.90;99.90;;;;;;4983345;28;20193;-66
2021/06/08 10:09:07;;;;;;;4.73;4.43;;;24.00;99.90;;;;;;4959658;28;20632;-66
2021/06/08 10:11:35;;;;;;;4.67;4.27;;;24.10;99.90;;;;;;4982867;28;20964;-66
2021/06/08 10:14:19;;;;;;;4.90;4.60;;;24.20;99.90;;;;;;4981342;28;20636;-65
2021/06/08 10:17:09;;;;;;;4.50;4.20;;;24.30;99.90;;;;;;4978820;28;20633;-66
2021/06/08 10:19:35;;;;;;;4.80;4.40;;;24.40;99.90;;;;;;4979820;28;21320;-67
2021/06/08 10:22:01;;;;;;;4.80;4.47;;;24.40;99.90;;;;;;4962285;28;20747;-66
2021/06/08 10:24:28;;;;;;;4.10;3.80;;;24.60;99.90;;;;;;4963835;28;20325;-66
2021/06/08 10:26:56;;;;;;;4.47;4.07;;;24.60;99.90;;;;;;4958021;28;20194;-67
2021/06/08 10:29:34;;;;;;;3.67;3.17;;;24.60;99.90;;;;;;4977453;28;20637;-67
2021/06/08 10:32:00;;;;;;;3.93;3.63;;;24.70;99.90;;;;;;4987120;28;20724;-66
2021/06/08 10:34:28;;;;;;;4.40;4.10;;;24.90;99.90;;;;;;4997687;28;20645;-70
2021/06/08 10:36:53;;;;;;;4.27;3.90;;;24.90;99.90;;;;;;4990438;28;20206;-66
2021/06/08 10:39:24;;;;;;;4.60;4.10;;;24.90;99.90;;;;;;4976736;28;20664;-66
2021/06/08 10:41:51;;;;;;;4.37;4.07;;;24.90;99.90;;;;;;4974742;28;20581;-66
2021/06/08 10:44:22;;;;;;;4.20;3.90;;;25.00;99.90;;;;;;4979300;28;20720;-66
2021/06/08 10:46:51;;;;;;;3.80;3.60;;;25.10;99.90;;;;;;4976961;28;20705;-66
2021/06/08 10:49:18;;;;;;;3.93;3.63;;;25.20;99.90;;;;;;4972337;28;20694;-66
2021/06/08 10:52:08;;;;;;;3.83;3.53;;;25.20;99.90;;;;;;4974017;28;21222;-66
2021/06/08 10:54:41;;;;;;;3.90;3.60;;;25.20;99.90;;;;;;4963919;28;20642;-66
2021/06/08 10:57:17;;;;;;;4.00;3.80;;;25.30;99.90;;;;;;4980152;28;20643;-66
2021/06/08 10:59:46;;;;;;;4.40;4.10;;;25.30;99.90;;;;;;4980117;28;21239;-66
2021/06/08 11:02:13;;;;;;;4.10;3.70;;;25.30;99.90;;;;;;4978479;28;21336;-66
2021/06/08 11:04:52;;;;;;;4.50;4.20;;;25.40;99.90;;;;;;4976243;28;21188;-66
2021/06/08 11:07:43;;;;;;;4.97;4.60;;;25.40;99.90;;;;;;4982579;28;20621;-67
2021/06/08 11:10:28;;;;;;;4.70;3.90;;;25.50;99.90;;;;;;4979491;28;20637;-66
2021/06/08 11:13:09;;;;;;;3.83;3.63;;;25.40;99.90;;;;;;4979378;28;21061;-66
2021/06/08 11:15:41;;;;;;;4.67;4.17;;;25.40;99.90;;;;;;4976602;28;20931;-67
2021/06/08 11:18:22;;;;;;;4.60;4.30;;;25.40;99.90;;;;;;4982390;28;21183;-66
2021/06/08 11:21:05;;;;;;;3.80;3.60;;;25.40;99.90;;;;;;4976290;28;20791;-66
2021/06/08 11:23:42;;;;;;;4.77;4.47;;;25.50;99.90;;;;;;4962593;28;20692;-66
2021/06/08 11:26:16;;;;;;;4.20;3.90;;;25.70;99.90;;;;;;4971723;28;20688;-66
2021/06/08 11:28:49;;;;;;;4.40;4.10;;;25.80;99.90;;;;;;4971932;28;20617;-66
2021/06/08 11:31:17;;;;;;;4.37;4.07;;;25.80;99.90;;;;;;4980464;28;20625;-66
2021/06/08 11:33:48;;;;;;;5.13;4.70;;;25.80;99.90;;;;;;4978608;28;20652;-66
2021/06/08 11:36:22;;;;;;;4.40;4.00;;;25.90;99.90;;;;;;4980808;28;20632;-66
2021/06/08 11:38:52;;;;;;;3.90;3.70;;;26.00;99.90;;;;;;4980649;28;21453;-66
2021/06/08 11:41:19;;;;;;;4.37;4.07;;;26.00;99.90;;;;;;4981944;28;20628;-66
2021/06/08 11:43:50;;;;;;;3.83;3.63;;;26.00;99.90;;;;;;4970962;28;20683;-66
2021/06/08 11:46:28;;;;;;;3.90;3.70;;;26.00;99.90;;;;;;4975312;28;20617;-67
2021/06/08 11:49:08;;;;;;;4.80;3.67;;;26.10;99.90;;;;;;4974194;28;20681;-66
2021/06/08 11:51:35;;;;;;;3.90;3.60;;;26.20;99.90;;;;;;4980537;28;21145;-66
2021/06/08 11:54:11;;;;;;;4.53;3.80;;;26.50;99.90;;;;;;4976839;28;20685;-66
2021/06/08 11:56:46;;;;;;;3.80;3.60;;;26.50;99.90;;;;;;4980052;28;20739;-66
2021/06/08 11:59:12;;;;;;;4.30;3.40;;;26.50;99.90;;;;;;4978173;28;21122;-67
2021/06/08 12:01:41;;;;;;;4.03;3.73;;;26.50;99.90;;;;;;4973318;28;20629;-66
2021/06/08 12:04:06;;;;;;;3.63;3.40;;;26.50;99.90;;;;;;4978178;28;20667;-66
2021/06/08 12:07:03;;;;;;;3.67;3.47;;;26.60;99.90;;;;;;4979968;28;21169;-68
2021/06/08 12:09:57;;;;;;;5.93;3.53;;;26.70;99.90;;;;;;4979310;28;20241;-66
2021/06/08 12:12:23;;;;;;;4.10;3.70;;;26.90;99.90;;;;;;4972543;28;20760;-66
2021/06/08 12:14:56;;;;;;;3.60;3.40;;;27.00;99.90;;;;;;4982277;28;21236;-66
2021/06/08 12:17:24;;;;;;;3.67;3.43;;;27.00;99.90;;;;;;4972737;28;20211;-66
2021/06/08 12:19:56;;;;;;;4.00;3.70;;;27.00;99.90;;;;;;4961826;28;20657;-66
2021/06/08 12:22:24;;;;;;;3.40;3.20;;;27.10;99.90;;;;;;4974903;28;20756;-67
2021/06/08 12:24:55;;;;;;;3.20;3.00;;;27.20;99.90;;;;;;4973283;28;20653;-67
2021/06/08 12:27:49;;;;;;;3.60;3.40;;;27.30;99.90;;;;;;4977238;28;20613;-67
2021/06/08 12:30:30;;;;;;;3.57;3.10;;;27.50;99.90;;;;;;4980826;28;20629;-66
2021/06/08 12:32:58;;;;;;;3.40;3.20;;;27.60;99.90;;;;;;4974427;28;20760;-66
2021/06/08 12:35:36;;;;;;;3.00;2.80;;;27.80;99.90;;;;;;4979423;28;20621;-66
2021/06/08 12:38:11;;;;;;;3.10;2.90;;;27.90;99.90;;;;;;4983657;28;20605;-66
2021/06/08 12:40:37;;;;;;;2.90;2.70;;;28.10;99.90;;;;;;4973050;28;20671;-65
2021/06/08 12:43:03;;;;;;;3.20;2.87;;;28.30;99.90;;;;;;4985093;28;20875;-66
2021/06/08 12:45:29;;;;;;;2.50;2.40;;;28.40;99.90;;;;;;4989349;28;20241;-66
2021/06/08 12:47:55;;;;;;;2.70;2.50;;;28.40;99.90;;;;;;4982828;28;20652;-65
2021/06/08 12:50:37;;;;;;;3.10;2.90;;;28.40;99.90;;;;;;4978882;28;20655;-66
2021/06/08 12:53:04;;;;;;;2.97;2.50;;;28.40;99.90;;;;;;4979849;28;20308;-65
2021/06/08 12:55:33;;;;;;;2.40;2.20;;;28.40;99.90;;;;;;4985059;28;20586;-65
2021/06/08 12:58:02;;;;;;;2.33;2.23;;;28.50;99.90;;;;;;4975796;28;20787;-66
2021/06/08 13:00:30;;;;;;;2.20;2.07;;;28.60;99.90;;;;;;4978033;28;20664;-65
2021/06/08 13:02:56;;;;;;;2.23;1.83;;;28.60;99.90;;;;;;4976362;28;20609;-65
2021/06/08 13:05:27;;;;;;;2.53;2.33;;;28.60;99.90;;;;;;4980606;28;21460;-64
2021/06/08 13:07:54;;;;;;;2.07;1.97;;;28.50;99.90;;;;;;4960595;28;20638;-65
2021/06/08 13:10:31;;;;;;;2.50;1.87;;;28.30;99.90;;;;;;4976878;28;20629;-65
2021/06/08 13:12:56;;;;;;;2.40;1.70;;;28.30;99.90;;;;;;4975695;28;20649;-65
2021/06/08 13:15:32;;;;;;;2.30;2.20;;;28.30;99.90;;;;;;4979539;28;20639;-65
2021/06/08 13:18:18;;;;;;;1.70;1.60;;;28.40;99.90;;;;;;4978422;28;20202;-65
2021/06/08 13:20:53;;;;;;;1.80;1.70;;;28.50;99.90;;;;;;4975486;28;20641;-65
2021/06/08 13:23:24;;;;;;;2.00;1.90;;;28.70;99.90;;;;;;4974227;28;21478;-65
2021/06/08 13:25:57;;;;;;;2.10;1.67;;;28.70;99.90;;;;;;4958790;28;20682;-65
2021/06/08 13:28:43;;;;;;;1.97;1.87;;;28.90;99.90;;;;;;4979484;28;20643;-65
2021/06/08 13:31:15;;;;;;;1.83;1.73;;;28.90;99.90;;;;;;4976813;28;20675;-66
2021/06/08 13:33:43;;;;;;;2.33;1.70;;;29.10;99.90;;;;;;4989105;28;20630;-66
2021/06/08 13:36:21;;;;;;;1.40;1.40;;;29.20;99.90;;;;;;4976641;28;20640;-65
2021/06/08 13:38:47;;;;;;;1.77;1.67;;;29.20;99.90;;;;;;4986769;28;20613;-65
2021/06/08 13:41:12;;;;;;;1.77;1.67;;;29.30;99.90;;;;;;4982769;28;21002;-65
2021/06/08 13:43:43;;;;;;;1.50;1.40;;;29.20;99.30;;;;;;4975133;28;20214;-65
2021/06/08 13:46:17;;;;;;;1.43;1.30;;;29.30;99.40;;;;;;4953079;28;20697;-65
2021/06/08 13:48:58;;;;;;;1.50;1.40;;;29.40;99.90;;;;;;4970948;28;21196;-67
2021/06/08 13:54:18;;;;;;;2.13;1.70;;;29.70;99.90;;;;;;4995579;28;20656;-66
2021/06/08 13:57:12;;;;;;;1.37;1.30;;;29.80;98.70;;;;;;4978215;28;20620;-68
2021/06/08 14:03:00;;;;;;;1.70;1.60;;;29.90;96.20;;;;;;4995492;28;20803;-68
2021/06/08 14:05:28;;;;;;;1.23;1.20;;;30.00;94.80;;;;;;4994628;28;20638;-67